createdAt,value
2022-12-16T00:01:19.286Z,73.10
2022-12-16T00:03:56.191Z,73.10
2022-12-16T00:06:26.383Z,73.10
2022-12-16T00:08:55.020Z,73.10
2022-12-16T00:11:25.043Z,73.20
2022-12-16T00:13:52.717Z,73.20
2022-12-16T00:16:22.677Z,73.20
2022-12-16T00:18:51.927Z,73.10
2022-12-16T00:21:23.147Z,73.10
2022-12-16T00:23:50.573Z,73.00
2022-12-16T00:26:25.767Z,73.00
2022-12-16T00:28:55.307Z,73.00
2022-12-16T00:31:25.297Z,72.90
2022-12-16T00:33:56.504Z,72.90
2022-12-16T00:36:26.252Z,72.90
2022-12-16T00:38:53.749Z,73.00
2022-12-16T00:41:21.440Z,73.00
2022-12-16T00:43:50.003Z,73.00
2022-12-16T00:46:19.772Z,73.10
2022-12-16T00:48:47.403Z,73.10
2022-12-16T00:51:14.937Z,73.00
2022-12-16T00:53:48.259Z,73.00
2022-12-16T00:56:15.709Z,73.10
2022-12-16T00:58:47.632Z,73.10
2022-12-16T01:01:17.843Z,73.00
2022-12-16T01:03:47.844Z,73.00
2022-12-16T01:06:21.826Z,73.20
2022-12-16T01:08:49.278Z,73.10
2022-12-16T01:11:18.742Z,73.10
2022-12-16T01:13:47.242Z,73.20
2022-12-16T01:16:15.329Z,73.30
2022-12-16T01:18:43.382Z,73.30
2022-12-16T01:21:14.175Z,74.20
2022-12-16T01:23:43.814Z,73.30
2022-12-16T01:26:16.838Z,73.40
2022-12-16T01:28:45.112Z,73.40
2022-12-16T01:31:13.013Z,73.30
2022-12-16T01:33:40.603Z,73.40
2022-12-16T01:36:09.164Z,73.40
2022-12-16T01:38:40.189Z,73.40
2022-12-16T01:41:10.070Z,73.50
2022-12-16T01:43:42.087Z,73.60
2022-12-16T01:46:13.803Z,73.70
2022-12-16T01:48:44.858Z,73.70
2022-12-16T01:51:41.303Z,73.70
2022-12-16T01:54:25.562Z,73.90
2022-12-16T01:56:59.488Z,73.90
2022-12-16T01:59:32.740Z,74.60
2022-12-16T02:02:00.641Z,73.90
2022-12-16T02:04:28.226Z,74.00
2022-12-16T02:06:58.514Z,74.10
2022-12-16T02:09:27.286Z,74.10
2022-12-16T02:12:17.586Z,74.10
2022-12-16T02:15:08.232Z,74.20
2022-12-16T02:17:35.375Z,74.20
2022-12-16T02:20:39.916Z,74.30
2022-12-16T02:23:45.126Z,74.40
2022-12-16T02:26:40.875Z,74.40
2022-12-16T02:29:36.940Z,74.30
2022-12-16T02:32:12.623Z,74.30
2022-12-16T02:34:55.017Z,74.20
2022-12-16T02:37:59.560Z,74.20
2022-12-16T02:40:41.627Z,74.20
2022-12-16T02:43:27.475Z,74.20
2022-12-16T02:45:54.872Z,74.20
2022-12-16T02:48:22.776Z,74.30
2022-12-16T02:50:51.900Z,74.20
2022-12-16T02:53:20.516Z,74.20
2022-12-16T02:56:22.331Z,74.20
2022-12-16T02:59:17.437Z,74.30
2022-12-16T03:01:56.977Z,74.30
2022-12-16T03:04:36.082Z,74.40
2022-12-16T03:07:06.624Z,74.50
2022-12-16T03:09:36.586Z,74.50
2022-12-16T03:12:10.664Z,74.50
2022-12-16T03:14:41.975Z,74.60
2022-12-16T03:17:13.328Z,74.60
2022-12-16T03:19:47.039Z,74.60
2022-12-16T03:22:29.061Z,74.60
2022-12-16T03:24:56.661Z,74.70
2022-12-16T03:27:35.626Z,74.80
2022-12-16T03:30:07.687Z,74.80
2022-12-16T03:32:41.531Z,74.80
2022-12-16T03:35:13.586Z,74.90
2022-12-16T03:37:45.342Z,74.90
2022-12-16T03:40:21.847Z,74.90
2022-12-16T03:42:52.531Z,75.00
2022-12-16T03:45:25.537Z,74.90
2022-12-16T03:47:53.516Z,75.00
2022-12-16T03:50:30.995Z,75.00
2022-12-16T03:52:58.795Z,75.00
2022-12-16T03:55:29.637Z,75.00
2022-12-16T03:57:57.293Z,75.10
2022-12-16T04:00:25.487Z,75.10
2022-12-16T04:02:57.821Z,75.10
2022-12-16T04:05:27.871Z,75.80
2022-12-16T04:08:00.240Z,75.10
2022-12-16T04:10:48.577Z,75.10
2022-12-16T04:13:35.312Z,75.10
2022-12-16T04:16:21.497Z,75.10
2022-12-16T04:19:07.655Z,75.00
2022-12-16T04:21:55.656Z,75.00
2022-12-16T04:24:26.792Z,74.90
2022-12-16T04:27:15.644Z,75.00
2022-12-16T04:30:09.730Z,75.00
2022-12-16T04:33:00.351Z,75.00
2022-12-16T04:35:46.366Z,75.00
2022-12-16T04:38:33.059Z,75.00
2022-12-16T04:41:18.982Z,75.10
2022-12-16T04:44:04.923Z,75.00
2022-12-16T04:46:50.947Z,75.00
2022-12-16T04:49:36.988Z,75.10
2022-12-16T04:52:24.315Z,75.10
2022-12-16T04:55:10.609Z,75.10
2022-12-16T04:57:56.529Z,75.00
2022-12-16T05:00:43.039Z,75.20
2022-12-16T05:03:28.958Z,75.30
2022-12-16T05:06:14.801Z,75.30
2022-12-16T05:09:00.870Z,75.30
2022-12-16T05:11:46.788Z,75.20
2022-12-16T05:14:32.707Z,75.20
2022-12-16T05:17:18.952Z,75.20
2022-12-16T05:20:04.666Z,75.20
2022-12-16T05:22:51.112Z,75.20
2022-12-16T05:25:37.113Z,75.10
2022-12-16T05:28:23.584Z,75.20
2022-12-16T05:31:10.337Z,75.20
2022-12-16T05:33:56.750Z,75.20
2022-12-16T05:36:42.762Z,75.60
2022-12-16T05:39:28.774Z,75.10
2022-12-16T05:42:17.344Z,75.10
2022-12-16T05:45:04.497Z,75.10
2022-12-16T05:47:50.360Z,74.90
2022-12-16T05:50:36.348Z,74.90
2022-12-16T05:53:29.352Z,74.90
2022-12-16T05:56:15.313Z,74.90
2022-12-16T05:59:01.505Z,74.90
2022-12-16T06:01:48.095Z,75.00
2022-12-16T06:04:34.137Z,75.00
2022-12-16T06:07:20.086Z,75.00
2022-12-16T06:10:08.644Z,75.10
2022-12-16T06:12:54.490Z,75.10
2022-12-16T06:15:42.666Z,75.10
2022-12-16T06:18:28.611Z,75.10
2022-12-16T06:21:14.572Z,75.10
2022-12-16T06:24:00.709Z,75.20
2022-12-16T06:26:46.699Z,75.20
2022-12-16T06:29:32.651Z,75.10
2022-12-16T06:32:18.588Z,75.10
2022-12-16T06:35:15.458Z,75.10
2022-12-16T06:38:01.608Z,75.00
2022-12-16T06:40:47.604Z,75.10
2022-12-16T06:43:33.968Z,75.00
2022-12-16T06:46:20.455Z,75.00
2022-12-16T06:49:06.694Z,75.00
2022-12-16T06:51:52.515Z,75.00
2022-12-16T06:54:38.685Z,75.00
2022-12-16T06:57:26.068Z,75.10
2022-12-16T07:00:12.103Z,75.00
2022-12-16T07:02:58.447Z,75.00
2022-12-16T07:05:44.247Z,75.10
2022-12-16T07:08:30.327Z,75.20
2022-12-16T07:11:17.398Z,75.10
2022-12-16T07:14:04.426Z,75.10
2022-12-16T07:16:50.504Z,75.20
2022-12-16T07:19:36.276Z,75.20
2022-12-16T07:22:22.310Z,75.30
2022-12-16T07:25:08.176Z,75.20
2022-12-16T07:27:54.570Z,75.20
2022-12-16T07:30:40.559Z,75.10
2022-12-16T07:33:27.086Z,75.10
2022-12-16T07:36:13.137Z,75.10
2022-12-16T07:38:59.096Z,75.00
2022-12-16T07:41:45.050Z,74.90
2022-12-16T07:44:31.004Z,74.90
2022-12-16T07:47:16.949Z,74.80
2022-12-16T07:50:02.669Z,74.70
2022-12-16T07:52:48.685Z,74.40
2022-12-16T07:55:34.870Z,74.20
2022-12-16T07:58:20.869Z,74.10
2022-12-16T08:01:09.634Z,74.10
2022-12-16T08:03:56.135Z,73.80
2022-12-16T08:06:42.295Z,73.70
2022-12-16T08:09:28.288Z,73.70
2022-12-16T08:12:14.308Z,73.80
2022-12-16T08:15:00.549Z,73.80
2022-12-16T08:17:46.822Z,73.90
2022-12-16T08:20:32.996Z,73.80
2022-12-16T08:23:19.047Z,73.70
2022-12-16T08:26:07.467Z,73.80
2022-12-16T08:28:53.531Z,73.90
2022-12-16T08:31:39.598Z,73.90
2022-12-16T08:34:26.577Z,73.80
2022-12-16T08:37:12.805Z,73.90
2022-12-16T08:40:33.266Z,73.70
2022-12-16T08:43:10.812Z,73.80
2022-12-16T08:45:59.708Z,73.80
2022-12-16T08:48:46.347Z,73.90
2022-12-16T08:51:32.436Z,73.70
2022-12-16T08:54:18.379Z,73.60
2022-12-16T08:57:04.372Z,73.60
2022-12-16T08:59:53.743Z,73.40
2022-12-16T09:02:40.679Z,73.30
2022-12-16T09:05:27.007Z,72.90
2022-12-16T09:08:18.366Z,72.50
2022-12-16T09:11:04.394Z,72.40
2022-12-16T09:13:50.445Z,72.20
2022-12-16T09:16:37.624Z,71.70
2022-12-16T09:19:23.755Z,71.50
2022-12-16T09:22:09.925Z,71.60
2022-12-16T09:24:56.097Z,71.60
2022-12-16T09:27:42.030Z,71.10
2022-12-16T09:30:28.706Z,70.80
2022-12-16T09:33:15.232Z,70.30
2022-12-16T09:36:01.951Z,69.90
2022-12-16T09:38:48.129Z,69.90
2022-12-16T09:41:46.414Z,69.70
2022-12-16T09:45:10.863Z,69.50
2022-12-16T09:48:04.654Z,69.20
2022-12-16T09:50:51.418Z,69.40
2022-12-16T09:53:41.391Z,69.60
2022-12-16T09:56:41.124Z,69.90
2022-12-16T09:59:33.353Z,69.00
2022-12-16T10:02:20.217Z,69.20
2022-12-16T10:05:10.905Z,69.30
2022-12-16T10:08:05.069Z,69.00
2022-12-16T10:11:08.917Z,69.10
2022-12-16T10:14:07.366Z,68.20
2022-12-16T10:17:21.381Z,68.30
2022-12-16T10:20:22.174Z,68.10
2022-12-16T10:23:32.050Z,68.20
2022-12-16T10:26:30.908Z,68.10
2022-12-16T10:29:31.677Z,68.00
2022-12-16T10:32:17.537Z,68.40
2022-12-16T10:35:03.938Z,68.60
2022-12-16T10:37:57.087Z,68.30
2022-12-16T10:40:46.665Z,68.80
2022-12-16T10:44:01.418Z,69.10
2022-12-16T10:47:01.195Z,68.70
2022-12-16T10:49:52.314Z,68.40
2022-12-16T10:52:41.372Z,68.20
2022-12-16T10:56:01.538Z,67.90
2022-12-16T10:58:56.390Z,67.20
2022-12-16T11:01:45.698Z,67.10
2022-12-16T11:04:55.721Z,66.90
2022-12-16T11:07:50.379Z,67.00
2022-12-16T11:10:56.056Z,67.20
2022-12-16T11:13:44.946Z,67.40
2022-12-16T11:16:43.865Z,67.80
2022-12-16T11:19:45.526Z,67.90
2022-12-16T11:22:38.677Z,67.50
2022-12-16T11:25:26.350Z,67.00
2022-12-16T11:28:45.411Z,66.60
2022-12-16T11:31:33.752Z,66.70
2022-12-16T11:34:23.358Z,66.90
2022-12-16T11:37:11.258Z,66.70
2022-12-16T11:39:58.889Z,66.80
2022-12-16T11:42:50.061Z,67.00
2022-12-16T11:45:40.730Z,66.90
2022-12-16T11:48:41.276Z,67.30
2022-12-16T11:51:33.345Z,67.60
2022-12-16T11:54:41.590Z,67.50
2022-12-16T11:57:41.430Z,67.40
2022-12-16T12:00:38.633Z,67.40
2022-12-16T12:03:44.418Z,67.20
2022-12-16T12:06:38.047Z,67.00
2022-12-16T12:09:24.118Z,67.00
2022-12-16T12:12:36.813Z,67.00
2022-12-16T12:15:34.179Z,66.30
2022-12-16T12:18:41.031Z,66.40
2022-12-16T12:21:38.355Z,66.60
2022-12-16T12:25:07.595Z,66.50
2022-12-16T12:28:09.275Z,66.20
2022-12-16T12:31:08.930Z,66.30
2022-12-16T12:34:12.723Z,66.10
2022-12-16T12:37:09.942Z,65.90
2022-12-16T12:40:10.582Z,65.80
2022-12-16T12:43:00.616Z,65.60
2022-12-16T12:46:15.719Z,65.20
2022-12-16T12:49:32.698Z,65.30
2022-12-16T12:52:52.082Z,65.90
2022-12-16T12:56:23.745Z,65.90
2022-12-16T12:59:13.148Z,65.80
2022-12-16T13:02:01.692Z,65.90
2022-12-16T13:04:50.599Z,65.60
2022-12-16T13:07:37.691Z,65.80
2022-12-16T13:10:31.520Z,66.20
2022-12-16T13:13:38.386Z,66.00
2022-12-16T13:16:30.141Z,65.80
2022-12-16T13:19:48.778Z,65.80
2022-12-16T13:22:53.492Z,65.10
2022-12-16T13:26:10.418Z,65.30
2022-12-16T13:28:59.516Z,65.70
2022-12-16T13:31:48.959Z,65.90
2022-12-16T13:34:35.896Z,65.90
2022-12-16T13:37:33.738Z,66.10
2022-12-16T13:40:31.562Z,66.10
2022-12-16T13:43:32.574Z,65.60
2022-12-16T13:46:30.201Z,66.10
2022-12-16T13:49:55.820Z,65.70
2022-12-16T13:53:08.662Z,65.30
2022-12-16T13:56:15.399Z,65.30
2022-12-16T13:59:08.114Z,65.30
2022-12-16T14:02:06.378Z,65.50
2022-12-16T14:04:56.011Z,65.80
2022-12-16T14:07:45.198Z,65.70
2022-12-16T14:10:50.646Z,65.90
2022-12-16T14:13:59.672Z,66.00
2022-12-16T14:16:51.950Z,66.10
2022-12-16T14:20:14.312Z,66.50
2022-12-16T14:23:46.821Z,66.80
2022-12-16T14:26:23.142Z,66.90
2022-12-16T14:29:09.223Z,66.80
2022-12-16T14:31:59.061Z,66.70
2022-12-16T14:34:55.352Z,66.50
2022-12-16T14:37:52.431Z,66.10
2022-12-16T14:40:42.268Z,66.20
2022-12-16T14:43:34.521Z,66.20
2022-12-16T14:46:21.511Z,66.10
2022-12-16T14:49:09.593Z,66.20
2022-12-16T14:52:03.659Z,65.90
2022-12-16T14:54:58.427Z,66.00
2022-12-16T14:57:51.050Z,66.20
2022-12-16T15:00:42.435Z,66.50
2022-12-16T15:03:37.734Z,66.40
2022-12-16T15:06:29.198Z,66.40
2022-12-16T15:09:32.546Z,66.50
2022-12-16T15:12:19.206Z,66.40
2022-12-16T15:15:05.990Z,66.20
2022-12-16T15:18:13.489Z,65.80
2022-12-16T15:21:14.278Z,65.60
2022-12-16T15:24:02.722Z,66.10
2022-12-16T15:26:50.768Z,66.40
2022-12-16T15:30:01.456Z,66.60
2022-12-16T15:32:54.381Z,66.70
2022-12-16T15:35:46.216Z,66.80
2022-12-16T15:38:34.716Z,66.90
2022-12-16T15:41:24.009Z,66.90
2022-12-16T15:44:10.743Z,67.00
2022-12-16T15:46:57.065Z,67.00
2022-12-16T15:50:03.626Z,67.20
2022-12-16T15:52:58.057Z,67.30
2022-12-16T15:56:04.539Z,67.40
2022-12-16T15:58:52.686Z,67.70
2022-12-16T16:01:46.582Z,67.70
2022-12-16T16:04:41.758Z,68.10
2022-12-16T16:07:47.964Z,68.30
2022-12-16T16:10:43.075Z,68.40
2022-12-16T16:13:29.580Z,68.20
2022-12-16T16:16:15.892Z,68.30
2022-12-16T16:19:01.806Z,68.30
2022-12-16T16:21:49.020Z,68.60
2022-12-16T16:24:34.970Z,68.40
2022-12-16T16:27:22.598Z,68.30
2022-12-16T16:30:08.927Z,68.30
2022-12-16T16:32:54.951Z,68.30
2022-12-16T16:35:41.047Z,68.40
2022-12-16T16:38:30.382Z,68.60
2022-12-16T16:41:18.029Z,68.60
2022-12-16T16:44:04.359Z,68.70
2022-12-16T16:46:57.186Z,68.70
2022-12-16T16:50:01.248Z,68.80
2022-12-16T16:52:47.135Z,68.80
2022-12-16T16:55:43.315Z,68.90
2022-12-16T16:58:40.528Z,68.90
2022-12-16T17:01:31.797Z,69.10
2022-12-16T17:04:18.032Z,69.10
2022-12-16T17:07:04.474Z,69.20
2022-12-16T17:09:50.495Z,69.50
2022-12-16T17:12:42.241Z,69.50
2022-12-16T17:15:41.752Z,69.50
2022-12-16T17:18:28.826Z,69.70
2022-12-16T17:21:14.926Z,69.90
2022-12-16T17:24:00.986Z,70.10
2022-12-16T17:26:46.891Z,70.30
2022-12-16T17:29:42.347Z,70.40
2022-12-16T17:32:30.139Z,70.50
2022-12-16T17:35:16.767Z,70.50
2022-12-16T17:38:03.064Z,70.60
2022-12-16T17:40:49.066Z,70.60
2022-12-16T17:43:36.062Z,70.60
2022-12-16T17:46:25.608Z,70.40
2022-12-16T17:49:13.050Z,70.40
2022-12-16T17:51:59.867Z,70.40
2022-12-16T17:54:48.669Z,70.20
2022-12-16T17:57:34.819Z,69.90
2022-12-16T18:00:21.810Z,69.60
2022-12-16T18:03:09.751Z,69.70
2022-12-16T18:05:58.510Z,69.80
2022-12-16T18:08:44.656Z,69.70
2022-12-16T18:11:35.901Z,69.70
2022-12-16T18:14:24.777Z,69.60
2022-12-16T18:17:10.820Z,69.40
2022-12-16T18:19:56.656Z,69.10
2022-12-16T18:22:42.579Z,68.90
2022-12-16T18:25:28.678Z,68.80
2022-12-16T18:28:14.943Z,68.80
2022-12-16T18:31:01.228Z,68.80
2022-12-16T18:33:47.175Z,68.80
2022-12-16T18:36:33.341Z,68.80
2022-12-16T18:39:19.464Z,68.80
2022-12-16T18:42:05.930Z,68.80
2022-12-16T18:44:57.576Z,68.80
2022-12-16T18:47:46.658Z,68.90
2022-12-16T18:50:37.515Z,68.80
2022-12-16T18:53:24.420Z,68.80
2022-12-16T18:56:25.744Z,68.90
2022-12-16T18:59:14.222Z,69.00
2022-12-16T19:02:00.220Z,69.00
2022-12-16T19:04:46.093Z,69.00
2022-12-16T19:07:33.981Z,69.00
2022-12-16T19:10:20.500Z,69.10
2022-12-16T19:13:06.570Z,69.10
2022-12-16T19:15:52.852Z,69.10
2022-12-16T19:18:39.190Z,69.20
2022-12-16T19:21:25.131Z,69.00
2022-12-16T19:24:11.502Z,69.00
2022-12-16T19:26:57.662Z,68.90
2022-12-16T19:29:43.807Z,69.10
2022-12-16T19:32:29.925Z,69.00
2022-12-16T19:35:16.275Z,69.00
2022-12-16T19:38:03.275Z,69.00
2022-12-16T19:41:00.322Z,69.20
2022-12-16T19:43:46.152Z,69.30
2022-12-16T19:46:32.975Z,69.30
2022-12-16T19:49:19.477Z,69.20
2022-12-16T19:52:05.344Z,69.30
2022-12-16T19:54:51.785Z,69.20
2022-12-16T19:57:38.292Z,69.20
2022-12-16T20:00:25.377Z,69.10
2022-12-16T20:03:11.544Z,69.10
2022-12-16T20:06:18.009Z,69.10
2022-12-16T20:09:07.903Z,69.00
2022-12-16T20:11:55.834Z,69.10
2022-12-16T20:14:56.463Z,69.10
2022-12-16T20:17:43.357Z,69.10
2022-12-16T20:20:29.570Z,69.10
2022-12-16T20:23:15.975Z,69.00
2022-12-16T20:26:02.132Z,68.90
2022-12-16T20:28:48.079Z,68.80
2022-12-16T20:31:34.654Z,68.70
2022-12-16T20:34:20.772Z,68.60
2022-12-16T20:37:06.576Z,68.60
2022-12-16T20:39:56.762Z,68.50
2022-12-16T20:42:47.673Z,68.40
2022-12-16T20:45:34.736Z,68.20
2022-12-16T20:48:20.968Z,68.30
2022-12-16T20:54:31.134Z,68.40
2022-12-16T20:57:17.170Z,68.40
2022-12-16T21:00:03.146Z,68.20
2022-12-16T21:02:49.468Z,68.50
2022-12-16T21:05:35.527Z,68.70
2022-12-16T21:08:35.158Z,68.90
2022-12-16T21:11:21.464Z,68.90
2022-12-16T21:14:07.276Z,69.00
2022-12-16T21:16:53.381Z,68.90
2022-12-16T21:19:41.835Z,68.70
2022-12-16T21:22:28.533Z,68.30
2022-12-16T21:25:14.335Z,68.20
2022-12-16T21:28:00.791Z,68.10
2022-12-16T21:30:46.760Z,69.00
2022-12-16T21:33:37.319Z,68.00
2022-12-16T21:36:24.564Z,67.70
2022-12-16T21:39:10.538Z,67.70
2022-12-16T21:41:56.858Z,67.60
2022-12-16T21:44:42.731Z,68.40
2022-12-16T21:47:28.722Z,67.70
2022-12-16T21:50:14.747Z,67.70
2022-12-16T21:53:01.164Z,67.70
2022-12-16T21:55:46.973Z,67.60
2022-12-16T21:58:33.047Z,67.90
2022-12-16T22:01:20.766Z,68.00
2022-12-16T22:04:06.698Z,68.20
2022-12-16T22:06:52.677Z,68.20
2022-12-16T22:09:39.167Z,68.10
2022-12-16T22:12:25.135Z,68.20
2022-12-16T22:15:11.127Z,68.20
2022-12-16T22:17:58.523Z,68.30
2022-12-16T22:20:45.268Z,68.20
2022-12-16T22:23:32.115Z,68.30
2022-12-16T22:26:19.909Z,68.50
2022-12-16T22:29:06.255Z,68.50
2022-12-16T22:31:52.180Z,68.50
2022-12-16T22:34:37.978Z,68.60
2022-12-16T22:37:23.848Z,68.80
2022-12-16T22:40:09.871Z,68.70
2022-12-16T22:42:56.318Z,68.60
2022-12-16T22:45:42.559Z,68.60
2022-12-16T22:48:31.145Z,68.50
2022-12-16T22:51:17.221Z,68.40
2022-12-16T22:54:03.717Z,68.40
2022-12-16T22:56:50.196Z,68.30
2022-12-16T22:59:35.972Z,68.30
2022-12-16T23:02:22.351Z,68.30
2022-12-16T23:05:08.852Z,68.30
2022-12-16T23:07:55.668Z,68.50
2022-12-16T23:10:42.600Z,68.50
2022-12-16T23:13:30.894Z,68.60
2022-12-16T23:16:16.896Z,68.70
2022-12-16T23:19:03.055Z,68.60
2022-12-16T23:21:49.118Z,68.40
2022-12-16T23:24:34.910Z,68.50
2022-12-16T23:27:20.863Z,68.60
2022-12-16T23:30:06.809Z,68.70
2022-12-16T23:32:53.706Z,68.50
2022-12-16T23:35:39.802Z,68.70
2022-12-16T23:38:26.341Z,68.70
2022-12-16T23:41:16.981Z,68.70
2022-12-16T23:44:03.743Z,68.60
2022-12-16T23:46:50.003Z,68.70
2022-12-16T23:49:36.125Z,68.80
2022-12-16T23:52:22.174Z,69.00
2022-12-16T23:55:08.010Z,69.10
2022-12-16T23:57:53.915Z,69.10
